Time;durP1;ratioP1;P1;durP2;ratioP2;P2;SDS_P1;SDS_P2;PMS_P1;PMS_P2;Temp;Humidity;BMP_temperature;BMP_pressure;BME280_temperature;BME280_humidity;BME280_pressure;Samples;Min_cycle;Max_cycle;Signal;HPM_P1;HPM_P2
2022/08/31 00:04:12;;;;;;;15.40;11.35;;;18.30;99.90;;;;;;4130200;28;20062;-66
2022/08/31 00:06:14;;;;;;;16.08;10.90;;;18.30;99.90;;;;;;4129713;28;20077;-63
2022/08/31 00:08:16;;;;;;;15.77;11.38;;;18.30;99.90;;;;;;4130493;28;20058;-62
2022/08/31 00:10:19;;;;;;;12.65;9.30;;;18.30;99.90;;;;;;4129860;28;20454;-63
2022/08/31 00:12:20;;;;;;;13.02;10.07;;;18.40;99.90;;;;;;4129289;28;20026;-66
2022/08/31 00:14:21;;;;;;;17.83;11.15;;;18.40;99.90;;;;;;4129291;28;20034;-64
2022/08/31 00:16:23;;;;;;;13.77;10.80;;;18.50;99.90;;;;;;4129939;28;20038;-64
2022/08/31 00:18:24;;;;;;;13.02;10.73;;;18.40;99.90;;;;;;4128953;28;20034;-65
2022/08/31 00:20:27;;;;;;;13.82;10.95;;;18.30;99.90;;;;;;4130054;28;20026;-62
2022/08/31 00:22:28;;;;;;;16.67;12.05;;;18.30;99.90;;;;;;4129666;28;20089;-63
2022/08/31 00:24:30;;;;;;;17.98;11.93;;;18.20;99.90;;;;;;4129945;28;20416;-63
2022/08/31 00:26:32;;;;;;;15.65;10.93;;;18.10;99.90;;;;;;4129772;28;20093;-65
2022/08/31 00:28:33;;;;;;;17.48;11.43;;;18.00;99.90;;;;;;4126824;28;20096;-61
2022/08/31 00:30:34;;;;;;;17.67;10.90;;;18.10;99.90;;;;;;4129201;28;20042;-62
2022/08/31 00:32:35;;;;;;;16.52;11.13;;;18.10;99.90;;;;;;4129982;28;20018;-62
2022/08/31 00:34:36;;;;;;;16.65;11.82;;;18.10;99.90;;;;;;4129213;28;20556;-63
2022/08/31 00:36:38;;;;;;;16.38;11.07;;;18.20;99.90;;;;;;4129448;28;20026;-66
2022/08/31 00:38:40;;;;;;;17.15;10.32;;;18.20;99.90;;;;;;4129947;28;20038;-62
2022/08/31 00:40:46;;;;;;;16.98;11.82;;;18.20;99.90;;;;;;4129363;28;20421;-63
2022/08/31 00:42:47;;;;;;;18.25;11.55;;;18.30;99.90;;;;;;4129864;28;20079;-63
2022/08/31 00:44:48;;;;;;;17.13;12.40;;;18.30;99.90;;;;;;4128071;28;20105;-62
2022/08/31 00:46:49;;;;;;;15.70;12.10;;;18.30;99.90;;;;;;4128675;28;20485;-61
2022/08/31 00:49:08;;;;;;;14.02;10.73;;;18.30;99.90;;;;;;4128818;28;20065;-63
2022/08/31 00:51:10;;;;;;;15.23;11.55;;;18.40;99.90;;;;;;4129953;28;20050;-62
2022/08/31 00:53:12;;;;;;;14.20;10.02;;;18.40;99.90;;;;;;4128440;28;20093;-61
2022/08/31 00:55:18;;;;;;;17.33;10.43;;;18.50;99.90;;;;;;4129859;28;20038;-61
2022/08/31 00:57:21;;;;;;;15.48;12.25;;;18.50;99.90;;;;;;4128964;28;20438;-61
2022/08/31 00:59:24;;;;;;;16.58;11.73;;;18.40;99.90;;;;;;4129609;28;20183;-63
2022/08/31 01:01:26;;;;;;;17.60;11.43;;;18.40;99.90;;;;;;4128465;28;20054;-66
2022/08/31 01:03:27;;;;;;;16.58;12.48;;;18.30;99.90;;;;;;4129958;28;20108;-64
2022/08/31 01:05:29;;;;;;;17.95;11.65;;;18.30;99.90;;;;;;4129071;28;20545;-62
2022/08/31 01:07:31;;;;;;;16.67;11.65;;;18.30;99.90;;;;;;4129130;28;20065;-65
2022/08/31 01:09:37;;;;;;;20.63;13.25;;;18.20;99.90;;;;;;4128474;28;20050;-62
2022/08/31 01:11:41;;;;;;;18.67;13.23;;;18.30;99.90;;;;;;4129026;28;20026;-63
2022/08/31 01:13:43;;;;;;;22.85;13.82;;;18.20;99.90;;;;;;4128988;28;21063;-62
2022/08/31 01:15:54;;;;;;;16.58;12.18;;;18.20;99.90;;;;;;4128955;28;20034;-62
2022/08/31 01:17:58;;;;;;;21.33;13.25;;;18.10;99.90;;;;;;4128198;28;20030;-62
2022/08/31 01:20:24;;;;;;;17.42;13.20;;;18.20;99.90;;;;;;4128757;28;20030;-61
2022/08/31 01:22:46;;;;;;;20.65;13.15;;;18.20;99.90;;;;;;4128832;28;20087;-63
2022/08/31 01:24:50;;;;;;;15.35;11.50;;;18.20;99.90;;;;;;4129019;28;20557;-62
2022/08/31 01:26:53;;;;;;;19.27;12.45;;;18.20;99.90;;;;;;4128879;28;20022;-61
2022/08/31 01:28:59;;;;;;;15.80;11.85;;;18.10;99.90;;;;;;4128578;28;20101;-61
2022/08/31 01:31:28;;;;;;;16.38;12.57;;;18.10;99.90;;;;;;4128652;28;20084;-61
2022/08/31 01:33:30;;;;;;;15.48;9.82;;;18.10;99.90;;;;;;4123618;28;20038;-61
2022/08/31 01:35:32;;;;;;;21.23;13.07;;;18.10;99.90;;;;;;4127549;28;20031;-61
2022/08/31 01:37:33;;;;;;;16.65;13.15;;;18.10;99.90;;;;;;4128813;28;20089;-62
2022/08/31 01:39:35;;;;;;;17.25;13.23;;;18.10;99.90;;;;;;4128905;28;20026;-61
2022/08/31 01:41:42;;;;;;;18.20;12.95;;;18.10;99.90;;;;;;4128616;28;20042;-61
2022/08/31 01:43:43;;;;;;;20.23;14.10;;;18.10;99.90;;;;;;4128585;28;20094;-62
2022/08/31 01:45:46;;;;;;;23.27;13.93;;;18.10;99.90;;;;;;4128398;28;20030;-62
2022/08/31 01:47:47;;;;;;;21.05;14.10;;;18.10;99.90;;;;;;4128796;28;20081;-62
2022/08/31 01:49:48;;;;;;;21.60;14.18;;;18.00;99.90;;;;;;4127732;28;20085;-63
2022/08/31 01:51:50;;;;;;;23.15;13.75;;;18.10;99.90;;;;;;4127959;28;20094;-62
2022/08/31 01:53:52;;;;;;;20.60;14.70;;;18.10;99.90;;;;;;4127892;28;20122;-64
2022/08/31 01:55:53;;;;;;;21.83;14.63;;;18.00;99.90;;;;;;4128861;28;20049;-63
2022/08/31 01:57:59;;;;;;;18.65;13.35;;;18.00;99.90;;;;;;4128080;28;20100;-63
2022/08/31 02:00:04;;;;;;;24.80;15.10;;;18.00;99.90;;;;;;4127831;28;20035;-61
2022/08/31 02:02:05;;;;;;;25.35;15.32;;;18.10;99.90;;;;;;4128210;28;20493;-61
2022/08/31 02:04:08;;;;;;;21.35;14.75;;;18.10;99.90;;;;;;4128741;28;20560;-61
2022/08/31 02:06:12;;;;;;;23.30;14.77;;;18.10;99.90;;;;;;4127977;28;20038;-63
2022/08/31 02:08:13;;;;;;;22.45;15.32;;;18.10;99.90;;;;;;4128463;28;20046;-63
2022/08/31 02:10:14;;;;;;;23.75;14.13;;;18.10;99.90;;;;;;4127043;28;20042;-62
2022/08/31 02:12:15;;;;;;;19.73;13.10;;;18.10;99.90;;;;;;4127855;28;20034;-61
2022/08/31 02:14:17;;;;;;;22.70;15.10;;;18.00;99.90;;;;;;4127950;28;20031;-62
2022/08/31 02:16:18;;;;;;;21.08;14.05;;;18.00;99.90;;;;;;4127938;28;20124;-64
2022/08/31 02:18:19;;;;;;;18.25;11.88;;;18.00;99.90;;;;;;4128300;28;20438;-61
2022/08/31 02:20:20;;;;;;;21.67;12.93;;;18.00;99.90;;;;;;4126255;28;20431;-62
2022/08/31 02:22:21;;;;;;;22.25;14.50;;;18.10;99.90;;;;;;4128337;28;20035;-61
2022/08/31 02:24:23;;;;;;;21.92;13.80;;;18.10;99.90;;;;;;4127784;28;20043;-60
2022/08/31 02:26:24;;;;;;;22.55;14.45;;;18.00;99.90;;;;;;4128561;28;20549;-63
2022/08/31 02:28:25;;;;;;;19.95;12.43;;;18.00;99.90;;;;;;4127701;28;20073;-62
2022/08/31 02:30:26;;;;;;;19.70;11.82;;;18.10;99.90;;;;;;4126943;28;20093;-62
2022/08/31 02:32:27;;;;;;;13.88;11.10;;;18.10;99.90;;;;;;4128097;28;20085;-62
2022/08/31 02:34:29;;;;;;;14.88;11.27;;;18.20;99.90;;;;;;4128063;28;20034;-65
2022/08/31 02:36:31;;;;;;;18.75;13.25;;;18.20;99.90;;;;;;4126248;28;20076;-62
2022/08/31 02:38:34;;;;;;;18.45;12.60;;;18.30;99.90;;;;;;4127901;28;20065;-61
2022/08/31 02:40:37;;;;;;;17.65;12.05;;;18.30;99.90;;;;;;4127355;28;20050;-61
2022/08/31 02:42:39;;;;;;;18.38;12.95;;;18.30;99.90;;;;;;4127698;28;20026;-61
2022/08/31 02:44:40;;;;;;;21.92;12.20;;;18.30;99.90;;;;;;4126782;28;20375;-62
2022/08/31 02:46:41;;;;;;;27.67;15.07;;;18.30;99.90;;;;;;4127533;28;20030;-61
2022/08/31 02:48:43;;;;;;;25.98;14.75;;;18.40;99.90;;;;;;4127530;28;20422;-61
2022/08/31 02:50:46;;;;;;;30.70;15.85;;;18.30;99.90;;;;;;4127415;28;20437;-61
2022/08/31 02:52:49;;;;;;;29.52;16.10;;;18.30;99.90;;;;;;4126794;28;20525;-62
2022/08/31 02:54:50;;;;;;;27.45;16.85;;;18.20;99.90;;;;;;4127493;28;20054;-61
2022/08/31 02:56:51;;;;;;;25.88;15.95;;;18.20;99.90;;;;;;4128246;28;20096;-62
2022/08/31 02:58:53;;;;;;;27.23;16.67;;;18.20;99.90;;;;;;4127341;28;20548;-60
2022/08/31 03:00:54;;;;;;;26.65;15.30;;;18.20;99.90;;;;;;4127176;28;20097;-60
2022/08/31 03:02:56;;;;;;;25.77;15.63;;;18.30;99.90;;;;;;4126638;28;20054;-61
2022/08/31 03:04:58;;;;;;;28.17;16.58;;;18.30;99.90;;;;;;4126534;28;20124;-61
2022/08/31 03:07:00;;;;;;;26.92;14.60;;;18.30;99.90;;;;;;4127391;28;20093;-61
2022/08/31 03:09:01;;;;;;;17.52;12.35;;;18.30;99.90;;;;;;4127569;28;20031;-61
2022/08/31 03:11:02;;;;;;;21.40;11.55;;;18.30;99.90;;;;;;4126920;28;20124;-62
2022/08/31 03:13:03;;;;;;;14.95;10.60;;;18.30;99.90;;;;;;4127402;28;20034;-61
2022/08/31 03:15:06;;;;;;;15.07;10.82;;;18.30;99.90;;;;;;4127696;28;20475;-62
2022/08/31 03:17:08;;;;;;;16.13;10.63;;;18.30;99.90;;;;;;4127448;28;20511;-63
2022/08/31 03:19:09;;;;;;;15.35;9.73;;;18.30;99.90;;;;;;4127373;28;20360;-61
2022/08/31 03:21:10;;;;;;;11.95;9.73;;;18.30;99.90;;;;;;4127208;28;20080;-60
2022/08/31 03:23:11;;;;;;;18.52;10.68;;;18.30;99.90;;;;;;4127478;28;20023;-61
2022/08/31 03:25:14;;;;;;;19.10;11.18;;;18.30;99.90;;;;;;4127069;28;20581;-62
2022/08/31 03:27:15;;;;;;;13.60;9.43;;;18.30;99.90;;;;;;4126695;28;20030;-63
2022/08/31 03:29:16;;;;;;;13.07;9.35;;;18.30;99.90;;;;;;4126676;28;20034;-60
2022/08/31 03:31:17;;;;;;;11.25;8.52;;;18.30;99.90;;;;;;4127709;28;20030;-61
2022/08/31 03:33:18;;;;;;;15.40;7.88;;;18.20;99.90;;;;;;4127188;28;20030;-62
2022/08/31 03:35:20;;;;;;;11.48;7.68;;;18.20;99.90;;;;;;4127646;28;20026;-61
2022/08/31 03:37:21;;;;;;;10.05;7.20;;;18.10;99.90;;;;;;4127135;28;20039;-61
2022/08/31 03:39:22;;;;;;;9.43;6.82;;;18.10;99.90;;;;;;4127864;28;20491;-62
2022/08/31 03:41:24;;;;;;;10.43;7.95;;;18.10;99.90;;;;;;4126991;28;20490;-61
2022/08/31 03:43:25;;;;;;;9.18;7.68;;;18.20;99.90;;;;;;4125893;28;20023;-61
2022/08/31 03:45:28;;;;;;;10.07;7.03;;;18.20;99.90;;;;;;4127118;28;20046;-61
2022/08/31 03:47:29;;;;;;;8.90;7.18;;;18.20;99.90;;;;;;4127197;28;20023;-61
2022/08/31 03:49:30;;;;;;;9.82;7.32;;;18.20;99.90;;;;;;4127226;28;20108;-61
2022/08/31 03:51:31;;;;;;;11.50;7.75;;;18.20;99.90;;;;;;4128354;28;20034;-63
2022/08/31 03:53:34;;;;;;;9.25;7.20;;;18.20;99.90;;;;;;4130557;28;20728;-62
2022/08/31 03:55:38;;;;;;;11.02;8.68;;;18.20;99.90;;;;;;4130086;28;20042;-62
2022/08/31 03:57:39;;;;;;;13.57;7.80;;;18.20;99.90;;;;;;4130525;28;20046;-64
2022/08/31 03:59:40;;;;;;;10.40;6.45;;;18.20;99.90;;;;;;4129563;28;20089;-62
2022/08/31 04:01:41;;;;;;;12.60;6.63;;;18.20;99.90;;;;;;4128815;28;20045;-62
2022/08/31 04:03:42;;;;;;;11.40;6.85;;;18.20;99.90;;;;;;4124267;28;20080;-62
2022/08/31 04:05:44;;;;;;;10.45;6.20;;;18.20;99.90;;;;;;4129132;28;20095;-62
2022/08/31 04:07:45;;;;;;;9.45;6.32;;;18.30;99.90;;;;;;4129404;28;20035;-61
2022/08/31 04:09:47;;;;;;;6.78;4.90;;;18.30;99.90;;;;;;4130052;28;20046;-63
2022/08/31 04:11:48;;;;;;;8.55;5.72;;;18.30;99.90;;;;;;4129643;28;20034;-64
2022/08/31 04:13:49;;;;;;;9.05;5.43;;;18.40;99.90;;;;;;4129709;28;20054;-61
2022/08/31 04:15:50;;;;;;;6.57;5.38;;;18.40;99.90;;;;;;4129393;28;20491;-61
2022/08/31 04:17:52;;;;;;;8.85;6.32;;;18.50;99.90;;;;;;4125863;28;20093;-63
2022/08/31 04:19:53;;;;;;;10.30;5.88;;;18.50;99.90;;;;;;4128590;28;20034;-61
2022/08/31 04:21:56;;;;;;;8.35;5.80;;;18.50;99.90;;;;;;4129031;28;20034;-61
2022/08/31 04:23:59;;;;;;;9.90;5.20;;;18.60;99.90;;;;;;4129612;28;20089;-61
2022/08/31 04:26:00;;;;;;;9.40;5.72;;;18.60;99.90;;;;;;4129314;28;20030;-63
2022/08/31 04:28:01;;;;;;;8.25;5.63;;;18.60;99.90;;;;;;4129397;28;20035;-62
2022/08/31 04:30:06;;;;;;;9.70;6.57;;;18.60;99.90;;;;;;4129030;28;20457;-63
2022/08/31 04:32:07;;;;;;;11.50;6.70;;;18.60;99.90;;;;;;4128943;28;20429;-62
2022/08/31 04:34:09;;;;;;;10.25;6.25;;;18.70;99.90;;;;;;4128403;28;20077;-62
2022/08/31 04:36:13;;;;;;;10.10;6.70;;;18.60;99.90;;;;;;4130071;28;20124;-62
2022/08/31 04:38:14;;;;;;;10.30;5.85;;;18.60;99.90;;;;;;4128782;28;20081;-62
2022/08/31 04:40:18;;;;;;;8.65;6.22;;;18.70;99.90;;;;;;4129539;28;20093;-61
2022/08/31 04:42:20;;;;;;;11.70;7.78;;;18.70;99.90;;;;;;4128321;28;20573;-63
2022/08/31 04:44:21;;;;;;;10.23;6.80;;;18.70;99.90;;;;;;4136328;28;20049;-61
2022/08/31 04:46:22;;;;;;;8.88;6.93;;;18.70;99.90;;;;;;4145004;28;20076;-62
2022/08/31 04:48:23;;;;;;;8.75;6.57;;;18.70;99.90;;;;;;4137257;28;20034;-61
2022/08/31 04:50:24;;;;;;;13.80;7.40;;;18.70;99.90;;;;;;4129000;28;20089;-62
2022/08/31 04:52:26;;;;;;;13.85;7.45;;;18.70;99.90;;;;;;4128912;28;20482;-61
2022/08/31 04:54:28;;;;;;;11.75;7.25;;;18.80;99.90;;;;;;4129093;28;20593;-64
2022/08/31 04:56:34;;;;;;;12.73;6.90;;;18.70;99.90;;;;;;4127263;28;20042;-63
2022/08/31 04:58:35;;;;;;;9.52;7.78;;;18.70;99.90;;;;;;4128926;28;20030;-62
2022/08/31 05:00:37;;;;;;;15.90;9.80;;;18.70;99.90;;;;;;4128642;28;20034;-63
2022/08/31 05:02:38;;;;;;;12.98;8.68;;;18.70;99.90;;;;;;4127894;28;20030;-62
2022/08/31 05:04:39;;;;;;;10.90;8.50;;;18.60;99.90;;;;;;4128368;28;20026;-62
2022/08/31 05:06:43;;;;;;;13.05;9.40;;;18.60;99.90;;;;;;4129368;28;20388;-62
2022/08/31 05:08:44;;;;;;;13.48;8.73;;;18.50;99.90;;;;;;4128075;28;20077;-62
2022/08/31 05:10:46;;;;;;;14.57;9.10;;;18.50;99.90;;;;;;4127232;28;20092;-63
2022/08/31 05:12:49;;;;;;;13.13;9.48;;;18.50;99.90;;;;;;4128446;28;20018;-63
2022/08/31 05:14:50;;;;;;;17.33;10.60;;;18.50;99.90;;;;;;4129152;28;20426;-63
2022/08/31 05:16:51;;;;;;;16.27;9.27;;;18.50;99.90;;;;;;4128645;28;20026;-64
2022/08/31 05:18:53;;;;;;;16.98;9.50;;;18.60;99.90;;;;;;4128951;28;20213;-63
2022/08/31 05:20:54;;;;;;;14.65;9.82;;;18.60;99.90;;;;;;4128406;28;20026;-63
2022/08/31 05:22:55;;;;;;;14.38;9.93;;;18.70;99.90;;;;;;4128551;28;20442;-61
2022/08/31 05:24:56;;;;;;;14.43;9.90;;;18.70;99.90;;;;;;4128795;28;20042;-62
2022/08/31 05:26:57;;;;;;;12.90;9.48;;;18.80;99.90;;;;;;4126940;28;20034;-62
2022/08/31 05:29:00;;;;;;;19.63;11.05;;;18.80;99.90;;;;;;4128289;28;20035;-62
2022/08/31 05:31:02;;;;;;;20.08;12.18;;;18.90;99.90;;;;;;4128204;28;20113;-63
2022/08/31 05:33:03;;;;;;;19.17;12.48;;;18.80;99.90;;;;;;4128834;28;20077;-62
2022/08/31 05:35:05;;;;;;;16.83;10.68;;;18.90;99.90;;;;;;4127978;28;20432;-62
2022/08/31 05:37:06;;;;;;;19.40;13.93;;;19.00;99.90;;;;;;4128498;28;20046;-61
2022/08/31 05:39:10;;;;;;;31.67;19.33;;;19.00;99.90;;;;;;4126371;28;20081;-61
2022/08/31 05:41:12;;;;;;;25.00;13.82;;;19.00;99.90;;;;;;4128641;28;20061;-62
2022/08/31 05:43:13;;;;;;;24.23;14.20;;;19.10;99.90;;;;;;4127529;28;20077;-63
2022/08/31 05:45:16;;;;;;;22.40;14.55;;;19.20;99.90;;;;;;4128767;28;20510;-62
2022/08/31 05:47:19;;;;;;;24.55;13.70;;;19.30;99.90;;;;;;4127079;28;20030;-63
2022/08/31 05:49:20;;;;;;;22.30;14.13;;;19.40;99.90;;;;;;4128270;28;20030;-63
2022/08/31 05:51:21;;;;;;;26.83;15.68;;;19.50;99.90;;;;;;4127693;28;20038;-63
2022/08/31 05:53:23;;;;;;;27.38;14.98;;;19.60;99.90;;;;;;4127241;28;20043;-63
2022/08/31 05:55:25;;;;;;;26.25;15.27;;;19.70;99.90;;;;;;4127205;28;20027;-63
2022/08/31 05:57:26;;;;;;;27.83;16.50;;;19.80;99.90;;;;;;4127953;28;20034;-63
2022/08/31 05:59:30;;;;;;;29.77;18.48;;;19.80;99.90;;;;;;4126571;28;20069;-62
2022/08/31 06:01:34;;;;;;;23.77;15.43;;;19.80;99.90;;;;;;4127844;28;20085;-63
2022/08/31 06:03:35;;;;;;;26.92;16.45;;;19.90;99.90;;;;;;4127636;28;20022;-63
2022/08/31 06:05:36;;;;;;;27.73;17.17;;;19.90;99.90;;;;;;4127405;28;20100;-63
2022/08/31 06:07:37;;;;;;;23.83;15.80;;;20.00;99.90;;;;;;4128036;28;20030;-63
2022/08/31 06:09:38;;;;;;;29.98;15.90;;;20.00;99.90;;;;;;4126070;28;20495;-62
2022/08/31 06:11:41;;;;;;;25.40;15.52;;;20.10;99.90;;;;;;4128412;28;20022;-65
2022/08/31 06:13:42;;;;;;;26.08;14.52;;;20.20;99.90;;;;;;4127182;28;20027;-61
2022/08/31 06:15:43;;;;;;;26.92;15.90;;;20.30;99.90;;;;;;4127327;28;20040;-62
2022/08/31 06:17:45;;;;;;;25.45;14.70;;;20.50;99.90;;;;;;4113776;28;20035;-62
2022/08/31 06:19:46;;;;;;;27.08;15.93;;;20.70;99.90;;;;;;4111980;28;20109;-62
2022/08/31 06:21:49;;;;;;;26.17;16.80;;;20.90;99.90;;;;;;4111221;28;20031;-63
2022/08/31 06:23:52;;;;;;;22.00;15.20;;;21.00;99.90;;;;;;4117532;28;20026;-62
2022/08/31 06:26:01;;;;;;;22.15;14.95;;;21.00;99.90;;;;;;4127667;28;20022;-62
2022/08/31 06:28:05;;;;;;;18.77;13.90;;;21.10;99.90;;;;;;4126481;28;20034;-62
2022/08/31 06:30:07;;;;;;;22.25;14.10;;;21.30;99.90;;;;;;4127638;28;20116;-62
2022/08/31 06:32:09;;;;;;;22.33;14.55;;;21.40;99.90;;;;;;4127862;28;20050;-63
2022/08/31 06:34:10;;;;;;;21.70;15.10;;;21.50;99.90;;;;;;4127724;28;20491;-62
2022/08/31 06:36:13;;;;;;;19.42;13.40;;;21.70;99.90;;;;;;4127519;28;20833;-62
2022/08/31 06:38:14;;;;;;;19.98;13.65;;;21.80;99.90;;;;;;4126442;28;20018;-63
2022/08/31 06:40:16;;;;;;;21.35;13.85;;;21.90;99.90;;;;;;4127549;28;20533;-62
2022/08/31 06:42:18;;;;;;;18.20;13.60;;;22.10;99.90;;;;;;4127992;28;20352;-63
2022/08/31 06:44:22;;;;;;;22.17;14.77;;;22.30;99.90;;;;;;4126919;28;20101;-65
2022/08/31 06:46:24;;;;;;;23.02;14.85;;;22.40;99.90;;;;;;4127788;28;20042;-63
2022/08/31 06:48:25;;;;;;;24.55;14.43;;;22.50;99.90;;;;;;4127162;28;20092;-61
2022/08/31 06:50:26;;;;;;;25.38;13.90;;;22.40;99.90;;;;;;4125984;28;20522;-62
2022/08/31 06:52:27;;;;;;;20.70;14.85;;;22.20;99.90;;;;;;4127033;28;20046;-63
2022/08/31 06:54:28;;;;;;;23.35;13.65;;;22.20;99.90;;;;;;4126665;28;20042;-63
2022/08/31 06:56:29;;;;;;;22.38;15.65;;;22.40;99.90;;;;;;4126814;28;20882;-63
2022/08/31 06:58:32;;;;;;;23.77;15.93;;;22.50;99.90;;;;;;4127467;28;20528;-63
2022/08/31 07:00:34;;;;;;;20.48;14.60;;;22.70;99.90;;;;;;4126980;28;20042;-64
2022/08/31 07:02:35;;;;;;;25.05;16.05;;;22.80;99.90;;;;;;4127199;28;20387;-62
2022/08/31 07:04:37;;;;;;;23.20;14.82;;;22.90;99.90;;;;;;4127164;28;20026;-62
2022/08/31 07:06:43;;;;;;;22.42;15.98;;;23.00;99.90;;;;;;4127378;28;20088;-64
2022/08/31 07:08:46;;;;;;;28.60;15.27;;;23.10;99.90;;;;;;4125784;28;20022;-64
2022/08/31 07:10:48;;;;;;;22.00;14.60;;;23.10;99.90;;;;;;4126920;28;20038;-62
2022/08/31 07:12:49;;;;;;;24.60;15.18;;;23.00;99.90;;;;;;4126470;28;20113;-63
2022/08/31 07:14:50;;;;;;;21.13;15.32;;;22.70;99.90;;;;;;4111000;28;20030;-62
2022/08/31 07:16:55;;;;;;;23.45;15.57;;;22.40;99.90;;;;;;4111063;28;20027;-63
2022/08/31 07:18:59;;;;;;;20.05;13.23;;;22.10;99.90;;;;;;4125497;28;20046;-63
2022/08/31 07:21:13;;;;;;;24.00;15.60;;;21.90;99.90;;;;;;4111162;28;20035;-63
2022/08/31 07:23:14;;;;;;;21.58;14.43;;;21.80;99.90;;;;;;4111035;28;20557;-61
2022/08/31 07:25:16;;;;;;;21.02;14.38;;;21.80;99.90;;;;;;4126158;28;20035;-62
2022/08/31 07:27:18;;;;;;;22.23;14.88;;;22.00;99.90;;;;;;4129235;28;20037;-62
2022/08/31 07:29:21;;;;;;;21.90;14.40;;;22.20;99.90;;;;;;4130525;28;20046;-63
2022/08/31 07:31:26;;;;;;;15.88;12.77;;;22.60;99.90;;;;;;4129715;28;20042;-63
2022/08/31 07:33:27;;;;;;;17.02;13.10;;;22.70;99.90;;;;;;4130412;28;20030;-62
2022/08/31 07:35:30;;;;;;;17.10;13.43;;;22.60;99.90;;;;;;4129625;28;20034;-62
2022/08/31 07:42:13;;;;;;;17.55;12.45;;;22.50;99.90;;;;;;4131205;28;20502;-64
2022/08/31 07:44:17;;;;;;;19.00;12.73;;;22.50;99.90;;;;;;4129497;28;20046;-62
2022/08/31 07:46:18;;;;;;;17.38;12.50;;;22.50;99.90;;;;;;4130224;28;20034;-62
2022/08/31 07:48:19;;;;;;;19.73;13.02;;;22.20;99.90;;;;;;4129534;28;20070;-65
2022/08/31 07:50:22;;;;;;;18.63;14.18;;;22.00;99.90;;;;;;4129924;28;20047;-63
2022/08/31 07:52:30;;;;;;;15.15;12.57;;;22.00;99.90;;;;;;4129653;28;20030;-62
2022/08/31 07:54:31;;;;;;;21.52;12.43;;;22.00;99.90;;;;;;4128853;28;20042;-62
2022/08/31 07:56:32;;;;;;;18.55;12.32;;;22.10;99.90;;;;;;4129682;28;20148;-63
2022/08/31 07:58:33;;;;;;;21.00;13.43;;;22.20;99.90;;;;;;4129783;28;20026;-62
2022/08/31 08:00:38;;;;;;;21.17;12.73;;;22.30;99.90;;;;;;4129913;28;20038;-62
2022/08/31 08:02:44;;;;;;;15.25;12.07;;;22.30;99.90;;;;;;4129975;28;20527;-62
2022/08/31 08:04:49;;;;;;;20.45;13.45;;;22.30;99.90;;;;;;4129731;28;20064;-63
2022/08/31 08:06:54;;;;;;;18.23;13.27;;;22.40;99.90;;;;;;4129609;28;20145;-63
2022/08/31 08:09:06;;;;;;;14.75;11.85;;;22.40;99.90;;;;;;4128970;28;20053;-63
2022/08/31 08:11:08;;;;;;;16.63;10.85;;;22.40;99.90;;;;;;4129426;28;20042;-63
2022/08/31 08:13:11;;;;;;;15.18;10.98;;;22.50;99.90;;;;;;4129145;28;20088;-63
2022/08/31 08:15:12;;;;;;;17.85;13.75;;;22.50;99.90;;;;;;4129370;28;20030;-63
2022/08/31 08:17:13;;;;;;;15.02;11.57;;;22.60;99.90;;;;;;4129846;28;20046;-63
2022/08/31 08:19:15;;;;;;;12.63;10.57;;;22.70;99.90;;;;;;4129328;28;20093;-63
2022/08/31 08:21:16;;;;;;;17.77;10.95;;;22.90;99.90;;;;;;4129873;28;20084;-63
2022/08/31 08:23:18;;;;;;;19.58;11.43;;;23.20;99.90;;;;;;4129047;28;20093;-63
2022/08/31 08:25:19;;;;;;;18.30;12.20;;;23.40;99.90;;;;;;4128750;28;20414;-63
2022/08/31 08:27:20;;;;;;;16.25;10.43;;;23.70;99.90;;;;;;4128426;28;20034;-64
2022/08/31 08:29:22;;;;;;;14.27;10.25;;;23.90;99.90;;;;;;4129290;28;20391;-63
2022/08/31 08:31:24;;;;;;;14.55;9.85;;;24.00;99.90;;;;;;4128856;28;20042;-63
2022/08/31 08:33:30;;;;;;;14.80;10.43;;;24.00;99.90;;;;;;4129552;28;20034;-63
2022/08/31 08:35:32;;;;;;;12.98;8.98;;;24.20;99.90;;;;;;4128989;28;20030;-62
2022/08/31 08:37:34;;;;;;;13.98;9.93;;;24.20;99.90;;;;;;4127377;28;20050;-62
2022/08/31 08:39:36;;;;;;;11.15;8.52;;;24.10;99.90;;;;;;4126440;28;20073;-62
2022/08/31 08:41:40;;;;;;;14.38;8.20;;;23.90;99.90;;;;;;4129553;28;20047;-62
2022/08/31 08:43:45;;;;;;;12.02;9.05;;;23.70;99.90;;;;;;4128967;28;20046;-63
2022/08/31 08:45:52;;;;;;;12.27;9.35;;;23.50;99.90;;;;;;4128122;28;20088;-63
2022/08/31 08:47:55;;;;;;;12.63;9.63;;;23.50;99.90;;;;;;4129198;28;20113;-63
2022/08/31 08:50:02;;;;;;;13.20;9.10;;;23.20;99.90;;;;;;4128549;28;20030;-62
2022/08/31 08:52:10;;;;;;;12.13;8.90;;;23.10;99.90;;;;;;4128815;28;20113;-62
2022/08/31 08:54:24;;;;;;;11.00;9.30;;;22.90;99.90;;;;;;4127463;28;20089;-64
2022/08/31 08:56:26;;;;;;;12.68;9.68;;;22.80;99.90;;;;;;4129085;28;20069;-62
2022/08/31 08:58:28;;;;;;;12.98;9.38;;;22.70;99.90;;;;;;4128575;28;20050;-62
2022/08/31 09:00:29;;;;;;;13.93;9.95;;;22.70;99.90;;;;;;4128816;28;20123;-62
2022/08/31 09:03:11;;;;;;;14.07;9.95;;;22.60;99.90;;;;;;4128474;28;20552;-63
2022/08/31 09:05:34;;;;;;;12.02;9.18;;;22.50;99.90;;;;;;4124531;28;20104;-62
2022/08/31 09:07:44;;;;;;;12.10;9.80;;;22.70;99.90;;;;;;4127975;28;20026;-62
2022/08/31 09:09:56;;;;;;;13.27;9.00;;;22.70;99.90;;;;;;4128479;28;20030;-62
2022/08/31 09:12:29;;;;;;;11.95;8.88;;;22.90;99.90;;;;;;4127539;28;20054;-62
2022/08/31 09:14:30;;;;;;;13.68;9.57;;;23.00;99.90;;;;;;4123001;28;20045;-62
2022/08/31 09:16:46;;;;;;;14.35;10.25;;;23.20;99.90;;;;;;4128773;28;20078;-62
2022/08/31 09:19:18;;;;;;;13.52;10.15;;;23.10;99.90;;;;;;4128510;28;20497;-63
2022/08/31 09:21:33;;;;;;;16.10;8.38;;;23.10;99.90;;;;;;4108912;28;20094;-64
2022/08/31 09:23:40;;;;;;;12.13;9.85;;;23.10;99.90;;;;;;4128223;28;20034;-63
2022/08/31 09:25:52;;;;;;;15.95;10.32;;;23.10;99.90;;;;;;4128615;28;20039;-62
2022/08/31 09:27:57;;;;;;;12.57;9.88;;;23.10;99.90;;;;;;4127831;28;20042;-63
2022/08/31 09:30:00;;;;;;;12.90;10.35;;;23.40;99.90;;;;;;4128988;28;20093;-64
2022/08/31 09:32:08;;;;;;;11.95;9.52;;;23.60;99.90;;;;;;4128004;28;20046;-62
2022/08/31 09:34:27;;;;;;;10.20;8.38;;;23.90;99.90;;;;;;4128533;28;20026;-62
2022/08/31 09:36:37;;;;;;;16.13;8.85;;;24.30;99.90;;;;;;4126827;28;20038;-62
2022/08/31 09:38:40;;;;;;;9.27;8.13;;;24.30;99.90;;;;;;4128489;28;20038;-63
2022/08/31 09:40:46;;;;;;;8.32;7.05;;;24.20;99.90;;;;;;4127013;28;20034;-63
2022/08/31 09:43:10;;;;;;;10.77;7.47;;;24.20;99.90;;;;;;4128723;28;20545;-63
2022/08/31 09:45:28;;;;;;;10.77;5.97;;;24.10;99.90;;;;;;4127253;28;20097;-62
2022/08/31 09:47:50;;;;;;;10.65;8.13;;;24.30;99.90;;;;;;4128357;28;20438;-62
2022/08/31 09:49:56;;;;;;;13.55;8.98;;;24.30;99.90;;;;;;4126154;28;20023;-63
2022/08/31 09:55:16;;;;;;;10.35;8.13;;;24.20;99.90;;;;;;4128102;28;20102;-62
2022/08/31 09:57:17;;;;;;;14.18;7.50;;;24.00;99.90;;;;;;4128063;28;20046;-62
2022/08/31 09:59:46;;;;;;;9.98;7.00;;;24.10;99.90;;;;;;4127738;28;20525;-65
2022/08/31 10:01:47;;;;;;;10.75;7.57;;;24.20;99.90;;;;;;4126980;28;20038;-62
2022/08/31 10:03:49;;;;;;;9.30;7.05;;;24.20;99.90;;;;;;4127939;28;20149;-63
2022/08/31 10:05:53;;;;;;;8.30;7.18;;;24.20;99.90;;;;;;4125708;28;20065;-63
2022/08/31 10:08:12;;;;;;;9.82;6.82;;;24.20;99.90;;;;;;4126730;28;20030;-64
2022/08/31 10:10:19;;;;;;;13.15;7.72;;;24.40;99.90;;;;;;4127774;28;20046;-62
2022/08/31 10:12:34;;;;;;;13.43;7.63;;;24.50;99.90;;;;;;4128435;28;20042;-63
2022/08/31 10:14:42;;;;;;;10.95;7.28;;;24.60;99.90;;;;;;4127586;28;20035;-63
2022/08/31 10:17:11;;;;;;;9.02;6.97;;;24.70;99.90;;;;;;4127796;28;20408;-62
2022/08/31 10:19:19;;;;;;;8.30;6.70;;;24.50;99.90;;;;;;4127324;28;20093;-63
2022/08/31 10:21:30;;;;;;;10.40;7.13;;;24.50;99.90;;;;;;4126490;28;20042;-63
2022/08/31 10:23:53;;;;;;;13.93;7.93;;;24.40;99.90;;;;;;4127028;28;20085;-62
2022/08/31 10:26:06;;;;;;;8.25;7.00;;;24.20;99.90;;;;;;4126453;28;20034;-63
2022/08/31 10:28:35;;;;;;;10.35;8.30;;;24.10;99.90;;;;;;4127130;28;20042;-61
2022/08/31 10:30:58;;;;;;;9.50;8.40;;;23.90;99.90;;;;;;4123805;28;20046;-62
2022/08/31 10:33:21;;;;;;;9.18;7.38;;;23.80;99.90;;;;;;4126841;28;20042;-62
2022/08/31 10:35:36;;;;;;;12.10;8.18;;;23.80;99.90;;;;;;4127706;28;20030;-63
2022/08/31 10:37:57;;;;;;;11.52;8.10;;;23.90;99.90;;;;;;4126169;28;20026;-63
2022/08/31 10:40:06;;;;;;;9.77;7.68;;;23.90;99.90;;;;;;4127457;28;20046;-62
2022/08/31 10:42:33;;;;;;;9.77;8.00;;;23.90;99.90;;;;;;4127245;28;20030;-62
2022/08/31 10:45:03;;;;;;;10.07;8.40;;;23.90;99.90;;;;;;4127003;28;20112;-63